sensor_id;sensor_type;location;lat;lon;timestamp;temperature;humidity
17033;DHT22;63208;52.178;21.016;2023-06-19T00:00:17;15.90;99.90
17033;DHT22;63208;52.178;21.016;2023-06-19T00:02:44;16.00;99.90
17033;DHT22;63208;52.178;21.016;2023-06-19T00:05:12;16.50;99.90
17033;DHT22;63208;52.178;21.016;2023-06-19T00:07:41;15.70;99.90
17033;DHT22;63208;52.178;21.016;2023-06-19T00:10:08;15.80;99.90
17033;DHT22;63208;52.178;21.016;2023-06-19T00:12:34;15.80;99.90
17033;DHT22;63208;52.178;21.016;2023-06-19T00:15:01;15.60;99.90
17033;DHT22;63208;52.178;21.016;2023-06-19T00:17:29;15.80;99.90
17033;DHT22;63208;52.178;21.016;2023-06-19T00:19:56;15.80;99.90
17033;DHT22;63208;52.178;21.016;2023-06-19T00:22:24;15.80;99.90
17033;DHT22;63208;52.178;21.016;2023-06-19T00:24:52;15.80;99.90
17033;DHT22;63208;52.178;21.016;2023-06-19T00:27:19;15.80;99.90
17033;DHT22;63208;52.178;21.016;2023-06-19T00:29:46;15.70;99.90
17033;DHT22;63208;52.178;21.016;2023-06-19T00:32:13;15.70;99.90
17033;DHT22;63208;52.178;21.016;2023-06-19T00:34:40;15.70;99.90
17033;DHT22;63208;52.178;21.016;2023-06-19T00:37:08;15.70;99.90
17033;DHT22;63208;52.178;21.016;2023-06-19T00:39:35;15.70;99.90
17033;DHT22;63208;52.178;21.016;2023-06-19T00:42:04;15.80;99.90
17033;DHT22;63208;52.178;21.016;2023-06-19T00:44:31;15.70;99.90
17033;DHT22;63208;52.178;21.016;2023-06-19T00:46:59;16.00;99.90
17033;DHT22;63208;52.178;21.016;2023-06-19T00:49:28;15.80;99.90
17033;DHT22;63208;52.178;21.016;2023-06-19T00:51:55;15.80;99.90
17033;DHT22;63208;52.178;21.016;2023-06-19T00:54:22;15.80;99.90
17033;DHT22;63208;52.178;21.016;2023-06-19T00:56:49;15.80;99.90
17033;DHT22;63208;52.178;21.016;2023-06-19T00:59:19;15.70;99.90
17033;DHT22;63208;52.178;21.016;2023-06-19T01:01:46;15.60;99.90
17033;DHT22;63208;52.178;21.016;2023-06-19T01:04:13;15.60;99.90
17033;DHT22;63208;52.178;21.016;2023-06-19T01:06:43;15.70;99.90
17033;DHT22;63208;52.178;21.016;2023-06-19T01:09:28;15.60;99.90
17033;DHT22;63208;52.178;21.016;2023-06-19T01:12:01;15.60;99.90
17033;DHT22;63208;52.178;21.016;2023-06-19T01:14:35;15.80;99.90
17033;DHT22;63208;52.178;21.016;2023-06-19T01:17:04;15.40;99.90
17033;DHT22;63208;52.178;21.016;2023-06-19T01:19:32;15.60;99.90
17033;DHT22;63208;52.178;21.016;2023-06-19T01:22:02;15.60;99.90
17033;DHT22;63208;52.178;21.016;2023-06-19T01:24:28;15.60;99.90
17033;DHT22;63208;52.178;21.016;2023-06-19T01:26:55;15.70;99.90
17033;DHT22;63208;52.178;21.016;2023-06-19T01:29:22;15.50;99.90
17033;DHT22;63208;52.178;21.016;2023-06-19T01:31:54;15.40;99.90
17033;DHT22;63208;52.178;21.016;2023-06-19T01:34:22;15.80;99.90
17033;DHT22;63208;52.178;21.016;2023-06-19T01:36:52;15.40;99.90
17033;DHT22;63208;52.178;21.016;2023-06-19T01:39:24;15.40;99.90
17033;DHT22;63208;52.178;21.016;2023-06-19T01:41:52;15.40;99.90
17033;DHT22;63208;52.178;21.016;2023-06-19T01:44:21;15.40;99.90
17033;DHT22;63208;52.178;21.016;2023-06-19T01:46:48;15.30;99.90
17033;DHT22;63208;52.178;21.016;2023-06-19T01:49:15;15.30;99.90
17033;DHT22;63208;52.178;21.016;2023-06-19T01:51:42;15.20;99.90
17033;DHT22;63208;52.178;21.016;2023-06-19T01:54:09;15.10;99.90
17033;DHT22;63208;52.178;21.016;2023-06-19T01:56:37;15.10;99.90
17033;DHT22;63208;52.178;21.016;2023-06-19T01:59:04;15.00;99.90
17033;DHT22;63208;52.178;21.016;2023-06-19T02:01:31;15.10;99.90
17033;DHT22;63208;52.178;21.016;2023-06-19T02:06:25;14.90;99.90
17033;DHT22;63208;52.178;21.016;2023-06-19T02:08:52;14.80;99.90
17033;DHT22;63208;52.178;21.016;2023-06-19T02:11:18;14.80;99.90
17033;DHT22;63208;52.178;21.016;2023-06-19T02:13:46;14.80;99.90
17033;DHT22;63208;52.178;21.016;2023-06-19T02:16:14;14.80;99.90
17033;DHT22;63208;52.178;21.016;2023-06-19T02:18:40;14.80;99.90
17033;DHT22;63208;52.178;21.016;2023-06-19T02:21:07;14.90;99.90
17033;DHT22;63208;52.178;21.016;2023-06-19T02:23:34;14.80;99.90
17033;DHT22;63208;52.178;21.016;2023-06-19T02:26:01;14.90;99.90
17033;DHT22;63208;52.178;21.016;2023-06-19T02:28:28;14.80;99.90
17033;DHT22;63208;52.178;21.016;2023-06-19T02:30:56;15.40;99.90
17033;DHT22;63208;52.178;21.016;2023-06-19T02:33:23;14.60;99.90
17033;DHT22;63208;52.178;21.016;2023-06-19T02:35:50;15.30;99.90
17033;DHT22;63208;52.178;21.016;2023-06-19T02:38:17;14.70;99.90
17033;DHT22;63208;52.178;21.016;2023-06-19T02:40:46;14.70;99.90
17033;DHT22;63208;52.178;21.016;2023-06-19T02:43:13;14.70;99.90
17033;DHT22;63208;52.178;21.016;2023-06-19T02:45:41;15.40;99.90
17033;DHT22;63208;52.178;21.016;2023-06-19T02:48:09;14.80;99.90
17033;DHT22;63208;52.178;21.016;2023-06-19T02:50:36;14.80;99.90
17033;DHT22;63208;52.178;21.016;2023-06-19T02:53:03;14.90;99.90
17033;DHT22;63208;52.178;21.016;2023-06-19T02:55:30;14.80;99.90
17033;DHT22;63208;52.178;21.016;2023-06-19T02:57:56;14.90;99.90
17033;DHT22;63208;52.178;21.016;2023-06-19T03:00:23;14.80;99.90
17033;DHT22;63208;52.178;21.016;2023-06-19T03:05:21;15.00;99.90
17033;DHT22;63208;52.178;21.016;2023-06-19T03:07:48;14.90;99.90
17033;DHT22;63208;52.178;21.016;2023-06-19T03:10:14;14.80;99.90
17033;DHT22;63208;52.178;21.016;2023-06-19T03:15:09;14.80;99.90
17033;DHT22;63208;52.178;21.016;2023-06-19T03:17:36;14.80;99.90
17033;DHT22;63208;52.178;21.016;2023-06-19T03:20:04;14.90;99.90
17033;DHT22;63208;52.178;21.016;2023-06-19T03:22:32;14.80;99.90
17033;DHT22;63208;52.178;21.016;2023-06-19T03:24:59;15.00;99.90
17033;DHT22;63208;52.178;21.016;2023-06-19T03:27:26;14.80;99.90
17033;DHT22;63208;52.178;21.016;2023-06-19T03:29:54;14.90;99.90
17033;DHT22;63208;52.178;21.016;2023-06-19T03:34:48;14.80;99.90
17033;DHT22;63208;52.178;21.016;2023-06-19T03:37:15;14.90;99.90
17033;DHT22;63208;52.178;21.016;2023-06-19T03:39:44;14.90;99.90
17033;DHT22;63208;52.178;21.016;2023-06-19T03:42:11;15.00;99.90
17033;DHT22;63208;52.178;21.016;2023-06-19T03:44:37;15.10;99.90
17033;DHT22;63208;52.178;21.016;2023-06-19T03:47:06;15.10;99.90
17033;DHT22;63208;52.178;21.016;2023-06-19T03:49:33;15.10;99.90
17033;DHT22;63208;52.178;21.016;2023-06-19T03:54:27;15.10;99.90
17033;DHT22;63208;52.178;21.016;2023-06-19T03:56:55;15.20;99.90
17033;DHT22;63208;52.178;21.016;2023-06-19T03:59:21;15.20;99.90
17033;DHT22;63208;52.178;21.016;2023-06-19T04:07:15;15.30;99.90
17033;DHT22;63208;52.178;21.016;2023-06-19T04:12:10;15.40;99.90
17033;DHT22;63208;52.178;21.016;2023-06-19T04:14:37;15.40;99.90
17033;DHT22;63208;52.178;21.016;2023-06-19T04:17:05;15.40;99.90
17033;DHT22;63208;52.178;21.016;2023-06-19T04:21:59;15.40;99.90
17033;DHT22;63208;52.178;21.016;2023-06-19T04:26:52;15.40;99.90
17033;DHT22;63208;52.178;21.016;2023-06-19T04:29:21;15.50;99.90
17033;DHT22;63208;52.178;21.016;2023-06-19T04:31:48;15.50;99.90
17033;DHT22;63208;52.178;21.016;2023-06-19T04:34:16;15.60;99.90
17033;DHT22;63208;52.178;21.016;2023-06-19T04:37:15;15.60;99.90
17033;DHT22;63208;52.178;21.016;2023-06-19T04:39:44;15.60;99.90
17033;DHT22;63208;52.178;21.016;2023-06-19T04:42:13;15.70;99.90
17033;DHT22;63208;52.178;21.016;2023-06-19T04:44:46;16.30;99.90
17033;DHT22;63208;52.178;21.016;2023-06-19T04:47:13;15.80;99.90
17033;DHT22;63208;52.178;21.016;2023-06-19T04:49:41;15.80;99.90
17033;DHT22;63208;52.178;21.016;2023-06-19T04:54:35;16.00;99.90
17033;DHT22;63208;52.178;21.016;2023-06-19T04:57:02;16.00;99.90
17033;DHT22;63208;52.178;21.016;2023-06-19T04:59:29;16.10;99.90
17033;DHT22;63208;52.178;21.016;2023-06-19T05:01:58;16.50;99.90
17033;DHT22;63208;52.178;21.016;2023-06-19T05:04:25;16.10;99.90
17033;DHT22;63208;52.178;21.016;2023-06-19T05:11:46;16.30;99.90
17033;DHT22;63208;52.178;21.016;2023-06-19T05:16:40;16.40;99.90
17033;DHT22;63208;52.178;21.016;2023-06-19T05:29:03;16.90;99.90
17033;DHT22;63208;52.178;21.016;2023-06-19T05:31:34;16.30;99.90
17033;DHT22;63208;52.178;21.016;2023-06-19T05:36:43;16.60;99.90
17033;DHT22;63208;52.178;21.016;2023-06-19T05:39:12;16.90;99.90
17033;DHT22;63208;52.178;21.016;2023-06-19T05:41:39;16.80;99.90
17033;DHT22;63208;52.178;21.016;2023-06-19T05:44:07;17.10;99.90
17033;DHT22;63208;52.178;21.016;2023-06-19T05:46:35;17.50;99.90
17033;DHT22;63208;52.178;21.016;2023-06-19T05:49:02;17.00;99.90
17033;DHT22;63208;52.178;21.016;2023-06-19T05:51:29;17.20;99.90
17033;DHT22;63208;52.178;21.016;2023-06-19T05:53:55;17.30;99.90
17033;DHT22;63208;52.178;21.016;2023-06-19T05:56:26;17.40;99.90
17033;DHT22;63208;52.178;21.016;2023-06-19T05:58:53;17.40;99.90
17033;DHT22;63208;52.178;21.016;2023-06-19T06:01:21;17.50;99.90
17033;DHT22;63208;52.178;21.016;2023-06-19T06:03:49;17.50;99.90
17033;DHT22;63208;52.178;21.016;2023-06-19T06:06:16;17.60;99.90
17033;DHT22;63208;52.178;21.016;2023-06-19T06:08:43;17.70;99.90
17033;DHT22;63208;52.178;21.016;2023-06-19T06:11:09;17.70;99.90
17033;DHT22;63208;52.178;21.016;2023-06-19T06:13:36;17.80;99.90
17033;DHT22;63208;52.178;21.016;2023-06-19T06:16:03;17.80;99.90
17033;DHT22;63208;52.178;21.016;2023-06-19T06:18:31;17.90;99.90
17033;DHT22;63208;52.178;21.016;2023-06-19T06:20:58;17.90;99.90
17033;DHT22;63208;52.178;21.016;2023-06-19T06:23:25;18.00;99.90
17033;DHT22;63208;52.178;21.016;2023-06-19T06:25:52;18.10;99.90
17033;DHT22;63208;52.178;21.016;2023-06-19T06:28:20;18.20;99.90
17033;DHT22;63208;52.178;21.016;2023-06-19T06:33:17;18.40;99.90
17033;DHT22;63208;52.178;21.016;2023-06-19T06:35:45;18.60;99.90
17033;DHT22;63208;52.178;21.016;2023-06-19T06:38:12;19.20;99.90
17033;DHT22;63208;52.178;21.016;2023-06-19T06:40:39;18.80;99.90
17033;DHT22;63208;52.178;21.016;2023-06-19T06:43:07;18.80;99.90
17033;DHT22;63208;52.178;21.016;2023-06-19T06:45:34;19.50;99.90
17033;DHT22;63208;52.178;21.016;2023-06-19T06:48:03;18.80;99.90
17033;DHT22;63208;52.178;21.016;2023-06-19T06:50:30;18.70;99.90
17033;DHT22;63208;52.178;21.016;2023-06-19T06:53:01;18.80;99.90
17033;DHT22;63208;52.178;21.016;2023-06-19T06:55:28;19.30;99.90
17033;DHT22;63208;52.178;21.016;2023-06-19T06:57:55;19.00;99.90
17033;DHT22;63208;52.178;21.016;2023-06-19T07:00:22;18.90;99.90
17033;DHT22;63208;52.178;21.016;2023-06-19T07:02:49;19.00;99.90
17033;DHT22;63208;52.178;21.016;2023-06-19T07:05:16;19.00;99.90
17033;DHT22;63208;52.178;21.016;2023-06-19T07:07:43;19.00;99.90
17033;DHT22;63208;52.178;21.016;2023-06-19T07:10:11;19.10;99.90
17033;DHT22;63208;52.178;21.016;2023-06-19T07:12:46;19.10;99.90
17033;DHT22;63208;52.178;21.016;2023-06-19T07:15:12;19.10;99.90
17033;DHT22;63208;52.178;21.016;2023-06-19T07:17:39;19.10;99.90
17033;DHT22;63208;52.178;21.016;2023-06-19T07:20:07;19.20;99.90
17033;DHT22;63208;52.178;21.016;2023-06-19T07:22:34;19.20;99.90
17033;DHT22;63208;52.178;21.016;2023-06-19T07:25:01;19.20;99.90
17033;DHT22;63208;52.178;21.016;2023-06-19T07:27:30;19.40;99.90
17033;DHT22;63208;52.178;21.016;2023-06-19T07:29:57;19.30;99.90
17033;DHT22;63208;52.178;21.016;2023-06-19T07:32:24;19.40;99.90
17033;DHT22;63208;52.178;21.016;2023-06-19T07:34:51;19.30;99.90
17033;DHT22;63208;52.178;21.016;2023-06-19T07:37:18;19.40;99.90
17033;DHT22;63208;52.178;21.016;2023-06-19T07:39:45;19.50;99.90
17033;DHT22;63208;52.178;21.016;2023-06-19T07:42:26;19.60;99.90
17033;DHT22;63208;52.178;21.016;2023-06-19T07:44:54;19.60;99.90
17033;DHT22;63208;52.178;21.016;2023-06-19T07:47:21;19.50;99.90
17033;DHT22;63208;52.178;21.016;2023-06-19T07:49:47;19.80;99.90
17033;DHT22;63208;52.178;21.016;2023-06-19T07:52:14;19.80;99.90
17033;DHT22;63208;52.178;21.016;2023-06-19T07:54:49;20.20;99.90
17033;DHT22;63208;52.178;21.016;2023-06-19T07:57:16;19.80;99.90
17033;DHT22;63208;52.178;21.016;2023-06-19T07:59:43;19.80;99.90
17033;DHT22;63208;52.178;21.016;2023-06-19T08:02:11;19.80;99.90
17033;DHT22;63208;52.178;21.016;2023-06-19T08:04:38;20.40;99.90
17033;DHT22;63208;52.178;21.016;2023-06-19T08:07:05;19.80;99.90
17033;DHT22;63208;52.178;21.016;2023-06-19T08:09:33;19.90;99.90
17033;DHT22;63208;52.178;21.016;2023-06-19T08:12:01;20.10;99.90
17033;DHT22;63208;52.178;21.016;2023-06-19T08:14:28;20.30;99.90
17033;DHT22;63208;52.178;21.016;2023-06-19T08:16:55;20.30;99.90
17033;DHT22;63208;52.178;21.016;2023-06-19T08:19:23;20.40;99.90
17033;DHT22;63208;52.178;21.016;2023-06-19T08:21:51;20.40;99.90
17033;DHT22;63208;52.178;21.016;2023-06-19T08:24:17;20.30;99.90
17033;DHT22;63208;52.178;21.016;2023-06-19T08:26:44;20.40;99.90
17033;DHT22;63208;52.178;21.016;2023-06-19T08:29:11;20.10;99.90
17033;DHT22;63208;52.178;21.016;2023-06-19T08:31:38;20.40;99.90
17033;DHT22;63208;52.178;21.016;2023-06-19T08:34:05;20.50;99.90
17033;DHT22;63208;52.178;21.016;2023-06-19T08:36:36;20.50;99.90
17033;DHT22;63208;52.178;21.016;2023-06-19T08:39:05;20.50;99.90
17033;DHT22;63208;52.178;21.016;2023-06-19T08:45:12;21.00;99.90
17033;DHT22;63208;52.178;21.016;2023-06-19T08:47:42;21.00;99.90
17033;DHT22;63208;52.178;21.016;2023-06-19T08:50:09;21.00;99.90
17033;DHT22;63208;52.178;21.016;2023-06-19T08:52:37;21.00;99.90
17033;DHT22;63208;52.178;21.016;2023-06-19T08:55:05;21.00;99.90
17033;DHT22;63208;52.178;21.016;2023-06-19T08:57:36;21.00;99.90
17033;DHT22;63208;52.178;21.016;2023-06-19T09:00:04;21.20;99.90
17033;DHT22;63208;52.178;21.016;2023-06-19T09:02:40;21.20;99.90
17033;DHT22;63208;52.178;21.016;2023-06-19T09:05:14;21.20;99.90
17033;DHT22;63208;52.178;21.016;2023-06-19T09:07:46;21.20;99.90
17033;DHT22;63208;52.178;21.016;2023-06-19T09:10:20;21.50;99.90
17033;DHT22;63208;52.178;21.016;2023-06-19T09:12:59;21.40;99.90
17033;DHT22;63208;52.178;21.016;2023-06-19T09:15:31;21.40;99.90
17033;DHT22;63208;52.178;21.016;2023-06-19T09:18:03;21.40;99.90
17033;DHT22;63208;52.178;21.016;2023-06-19T09:20:30;21.40;99.90
17033;DHT22;63208;52.178;21.016;2023-06-19T09:22:58;21.50;99.90
17033;DHT22;63208;52.178;21.016;2023-06-19T09:25:25;21.80;99.90
17033;DHT22;63208;52.178;21.016;2023-06-19T09:27:53;21.80;99.90
17033;DHT22;63208;52.178;21.016;2023-06-19T09:30:20;21.80;99.90
17033;DHT22;63208;52.178;21.016;2023-06-19T09:32:48;21.70;99.90
17033;DHT22;63208;52.178;21.016;2023-06-19T09:35:15;21.70;99.90
17033;DHT22;63208;52.178;21.016;2023-06-19T09:37:42;21.90;99.90
17033;DHT22;63208;52.178;21.016;2023-06-19T09:40:11;21.90;99.90
17033;DHT22;63208;52.178;21.016;2023-06-19T09:42:39;21.90;99.90
17033;DHT22;63208;52.178;21.016;2023-06-19T09:45:08;22.20;99.90
17033;DHT22;63208;52.178;21.016;2023-06-19T09:47:36;22.30;99.90
17033;DHT22;63208;52.178;21.016;2023-06-19T09:50:05;22.40;99.90
17033;DHT22;63208;52.178;21.016;2023-06-19T09:52:33;22.50;99.90
17033;DHT22;63208;52.178;21.016;2023-06-19T09:55:03;22.70;99.90
17033;DHT22;63208;52.178;21.016;2023-06-19T09:57:32;22.60;99.90
17033;DHT22;63208;52.178;21.016;2023-06-19T10:00:01;22.80;99.90
17033;DHT22;63208;52.178;21.016;2023-06-19T10:02:37;22.80;99.90
17033;DHT22;63208;52.178;21.016;2023-06-19T10:05:06;22.80;99.90
17033;DHT22;63208;52.178;21.016;2023-06-19T10:07:35;23.00;99.90
17033;DHT22;63208;52.178;21.016;2023-06-19T10:10:03;23.60;99.90
17033;DHT22;63208;52.178;21.016;2023-06-19T10:12:37;23.10;99.90
17033;DHT22;63208;52.178;21.016;2023-06-19T10:15:13;23.00;99.90
17033;DHT22;63208;52.178;21.016;2023-06-19T10:17:46;22.70;99.90
17033;DHT22;63208;52.178;21.016;2023-06-19T10:20:27;23.00;99.90
17033;DHT22;63208;52.178;21.016;2023-06-19T10:23:01;23.20;99.90
17033;DHT22;63208;52.178;21.016;2023-06-19T10:25:29;23.30;99.90
17033;DHT22;63208;52.178;21.016;2023-06-19T10:28:19;23.20;99.90
17033;DHT22;63208;52.178;21.016;2023-06-19T10:30:52;24.10;99.90
17033;DHT22;63208;52.178;21.016;2023-06-19T10:33:19;23.20;99.90
17033;DHT22;63208;52.178;21.016;2023-06-19T10:35:46;23.30;99.90
17033;DHT22;63208;52.178;21.016;2023-06-19T10:38:14;23.20;99.90
17033;DHT22;63208;52.178;21.016;2023-06-19T10:40:42;23.20;99.90
17033;DHT22;63208;52.178;21.016;2023-06-19T10:43:10;23.20;99.90
17033;DHT22;63208;52.178;21.016;2023-06-19T10:45:38;23.30;99.90
17033;DHT22;63208;52.178;21.016;2023-06-19T10:48:05;23.20;99.90
17033;DHT22;63208;52.178;21.016;2023-06-19T10:50:36;23.40;99.90
17033;DHT22;63208;52.178;21.016;2023-06-19T10:53:04;23.40;99.90
17033;DHT22;63208;52.178;21.016;2023-06-19T10:55:31;23.90;99.90
17033;DHT22;63208;52.178;21.016;2023-06-19T10:57:57;23.70;99.90
17033;DHT22;63208;52.178;21.016;2023-06-19T11:00:26;23.90;99.90
17033;DHT22;63208;52.178;21.016;2023-06-19T11:02:55;24.00;99.90
17033;DHT22;63208;52.178;21.016;2023-06-19T11:05:35;24.20;99.90
17033;DHT22;63208;52.178;21.016;2023-06-19T11:08:02;24.30;99.90
17033;DHT22;63208;52.178;21.016;2023-06-19T11:10:29;24.40;99.90
17033;DHT22;63208;52.178;21.016;2023-06-19T11:12:58;24.50;99.90
17033;DHT22;63208;52.178;21.016;2023-06-19T11:15:29;24.50;99.90
17033;DHT22;63208;52.178;21.016;2023-06-19T11:17:57;24.10;99.90
17033;DHT22;63208;52.178;21.016;2023-06-19T11:20:25;24.90;99.90
17033;DHT22;63208;52.178;21.016;2023-06-19T11:22:55;24.80;99.90
17033;DHT22;63208;52.178;21.016;2023-06-19T11:25:22;24.80;99.90
17033;DHT22;63208;52.178;21.016;2023-06-19T11:27:49;24.90;99.90
17033;DHT22;63208;52.178;21.016;2023-06-19T11:30:17;25.10;99.90
17033;DHT22;63208;52.178;21.016;2023-06-19T11:32:46;25.10;99.90
17033;DHT22;63208;52.178;21.016;2023-06-19T11:35:16;25.20;99.90
17033;DHT22;63208;52.178;21.016;2023-06-19T11:37:43;25.20;99.90
17033;DHT22;63208;52.178;21.016;2023-06-19T11:40:10;25.50;99.90
17033;DHT22;63208;52.178;21.016;2023-06-19T11:42:45;25.50;99.90
17033;DHT22;63208;52.178;21.016;2023-06-19T11:45:12;25.70;99.90
17033;DHT22;63208;52.178;21.016;2023-06-19T11:47:39;25.90;99.90
17033;DHT22;63208;52.178;21.016;2023-06-19T11:50:07;25.90;99.90
17033;DHT22;63208;52.178;21.016;2023-06-19T11:52:35;25.80;99.40
17033;DHT22;63208;52.178;21.016;2023-06-19T11:55:03;25.80;98.50
17033;DHT22;63208;52.178;21.016;2023-06-19T11:57:30;25.90;99.00
17033;DHT22;63208;52.178;21.016;2023-06-19T12:00:15;26.10;97.20
17033;DHT22;63208;52.178;21.016;2023-06-19T12:02:43;26.00;97.50
17033;DHT22;63208;52.178;21.016;2023-06-19T12:05:10;26.20;98.60
17033;DHT22;63208;52.178;21.016;2023-06-19T12:07:39;26.40;99.90
17033;DHT22;63208;52.178;21.016;2023-06-19T12:10:06;26.60;99.50
17033;DHT22;63208;52.178;21.016;2023-06-19T12:12:36;26.80;99.90
17033;DHT22;63208;52.178;21.016;2023-06-19T12:15:05;26.80;97.60
17033;DHT22;63208;52.178;21.016;2023-06-19T12:17:32;27.10;99.80
17033;DHT22;63208;52.178;21.016;2023-06-19T12:19:59;27.20;99.00
17033;DHT22;63208;52.178;21.016;2023-06-19T12:22:26;26.90;94.90
17033;DHT22;63208;52.178;21.016;2023-06-19T12:24:55;26.50;94.40
17033;DHT22;63208;52.178;21.016;2023-06-19T12:27:22;26.50;95.10
17033;DHT22;63208;52.178;21.016;2023-06-19T12:29:48;26.80;95.30
17033;DHT22;63208;52.178;21.016;2023-06-19T12:32:15;27.00;93.50
17033;DHT22;63208;52.178;21.016;2023-06-19T12:37:13;27.60;95.30
17033;DHT22;63208;52.178;21.016;2023-06-19T12:39:40;27.90;96.00
17033;DHT22;63208;52.178;21.016;2023-06-19T12:42:26;28.30;95.90
17033;DHT22;63208;52.178;21.016;2023-06-19T12:44:53;28.40;94.60
17033;DHT22;63208;52.178;21.016;2023-06-19T12:47:20;28.10;91.90
17033;DHT22;63208;52.178;21.016;2023-06-19T12:49:47;27.70;96.30
17033;DHT22;63208;52.178;21.016;2023-06-19T12:52:13;27.80;93.00
17033;DHT22;63208;52.178;21.016;2023-06-19T12:54:40;28.10;93.50
17033;DHT22;63208;52.178;21.016;2023-06-19T12:57:28;27.50;87.90
17033;DHT22;63208;52.178;21.016;2023-06-19T12:59:55;27.50;90.20
17033;DHT22;63208;52.178;21.016;2023-06-19T13:02:22;27.20;89.30
17033;DHT22;63208;52.178;21.016;2023-06-19T13:04:49;27.60;88.70
17033;DHT22;63208;52.178;21.016;2023-06-19T13:07:16;28.20;90.90
17033;DHT22;63208;52.178;21.016;2023-06-19T13:09:42;28.70;91.10
17033;DHT22;63208;52.178;21.016;2023-06-19T13:12:10;28.70;88.20
17033;DHT22;63208;52.178;21.016;2023-06-19T13:14:38;27.80;89.50
17033;DHT22;63208;52.178;21.016;2023-06-19T13:17:05;27.80;99.90
17033;DHT22;63208;52.178;21.016;2023-06-19T13:19:32;28.00;99.90
17033;DHT22;63208;52.178;21.016;2023-06-19T13:21:59;28.80;92.40
17033;DHT22;63208;52.178;21.016;2023-06-19T13:24:28;29.50;99.90
17033;DHT22;63208;52.178;21.016;2023-06-19T13:26:55;29.70;91.30
17033;DHT22;63208;52.178;21.016;2023-06-19T13:29:22;29.40;91.30
17033;DHT22;63208;52.178;21.016;2023-06-19T13:31:50;29.60;88.80
17033;DHT22;63208;52.178;21.016;2023-06-19T13:34:30;29.80;84.20
17033;DHT22;63208;52.178;21.016;2023-06-19T13:36:56;29.50;83.90
17033;DHT22;63208;52.178;21.016;2023-06-19T13:39:23;28.60;84.70
17033;DHT22;63208;52.178;21.016;2023-06-19T13:41:50;27.50;88.10
17033;DHT22;63208;52.178;21.016;2023-06-19T13:44:17;27.10;89.30
17033;DHT22;63208;52.178;21.016;2023-06-19T13:46:44;27.00;89.60
17033;DHT22;63208;52.178;21.016;2023-06-19T13:49:13;27.60;89.70
17033;DHT22;63208;52.178;21.016;2023-06-19T13:51:40;28.70;87.30
17033;DHT22;63208;52.178;21.016;2023-06-19T13:54:07;29.00;85.50
17033;DHT22;63208;52.178;21.016;2023-06-19T13:56:34;30.70;85.00
17033;DHT22;63208;52.178;21.016;2023-06-19T13:59:00;32.40;81.30
17033;DHT22;63208;52.178;21.016;2023-06-19T14:01:28;33.70;75.80
17033;DHT22;63208;52.178;21.016;2023-06-19T14:03:55;34.60;73.10
17033;DHT22;63208;52.178;21.016;2023-06-19T14:06:36;35.60;68.70
17033;DHT22;63208;52.178;21.016;2023-06-19T14:11:31;36.40;68.10
17033;DHT22;63208;52.178;21.016;2023-06-19T14:13:58;36.60;59.80
17033;DHT22;63208;52.178;21.016;2023-06-19T14:16:25;37.00;59.40
17033;DHT22;63208;52.178;21.016;2023-06-19T14:18:51;37.50;58.70
17033;DHT22;63208;52.178;21.016;2023-06-19T14:21:18;37.40;57.60
17033;DHT22;63208;52.178;21.016;2023-06-19T14:23:46;37.80;56.10
17033;DHT22;63208;52.178;21.016;2023-06-19T14:26:13;38.00;55.20
17033;DHT22;63208;52.178;21.016;2023-06-19T14:28:40;37.60;52.80
17033;DHT22;63208;52.178;21.016;2023-06-19T14:31:07;37.70;53.50
17033;DHT22;63208;52.178;21.016;2023-06-19T14:33:34;38.00;52.90
17033;DHT22;63208;52.178;21.016;2023-06-19T14:36:02;38.20;52.80
17033;DHT22;63208;52.178;21.016;2023-06-19T14:38:30;37.80;51.80
17033;DHT22;63208;52.178;21.016;2023-06-19T14:44:27;37.70;51.00
17033;DHT22;63208;52.178;21.016;2023-06-19T14:46:54;37.70;52.30
17033;DHT22;63208;52.178;21.016;2023-06-19T14:49:21;37.70;50.80
17033;DHT22;63208;52.178;21.016;2023-06-19T14:51:48;37.40;51.70
17033;DHT22;63208;52.178;21.016;2023-06-19T15:01:08;39.40;53.20
17033;DHT22;63208;52.178;21.016;2023-06-19T15:03:42;36.80;50.90
17033;DHT22;63208;52.178;21.016;2023-06-19T15:09:30;36.60;51.70
17033;DHT22;63208;52.178;21.016;2023-06-19T15:11:57;36.40;52.10
17033;DHT22;63208;52.178;21.016;2023-06-19T15:14:24;36.20;48.80
17033;DHT22;63208;52.178;21.016;2023-06-19T15:16:52;35.70;49.60
17033;DHT22;63208;52.178;21.016;2023-06-19T15:19:19;35.40;49.20
17033;DHT22;63208;52.178;21.016;2023-06-19T15:21:45;35.20;49.60
17033;DHT22;63208;52.178;21.016;2023-06-19T15:24:12;34.50;50.80
17033;DHT22;63208;52.178;21.016;2023-06-19T15:26:39;34.90;51.00
17033;DHT22;63208;52.178;21.016;2023-06-19T15:29:06;35.00;51.50
17033;DHT22;63208;52.178;21.016;2023-06-19T15:38:18;33.50;50.60
17033;DHT22;63208;52.178;21.016;2023-06-19T15:40:46;33.70;51.60
17033;DHT22;63208;52.178;21.016;2023-06-19T15:45:46;33.40;51.80
17033;DHT22;63208;52.178;21.016;2023-06-19T15:48:13;33.30;52.80
17033;DHT22;63208;52.178;21.016;2023-06-19T15:50:40;32.80;53.30
17033;DHT22;63208;52.178;21.016;2023-06-19T15:55:42;29.70;56.30
17033;DHT22;63208;52.178;21.016;2023-06-19T16:00:37;28.60;59.30
17033;DHT22;63208;52.178;21.016;2023-06-19T16:03:03;28.00;59.50
17033;DHT22;63208;52.178;21.016;2023-06-19T16:05:49;28.00;60.30
17033;DHT22;63208;52.178;21.016;2023-06-19T16:17:47;24.20;59.90
17033;DHT22;63208;52.178;21.016;2023-06-19T16:25:09;27.50;67.90
17033;DHT22;63208;52.178;21.016;2023-06-19T16:30:04;27.30;72.60
17033;DHT22;63208;52.178;21.016;2023-06-19T16:32:31;27.20;65.60
17033;DHT22;63208;52.178;21.016;2023-06-19T16:34:59;26.40;72.40
17033;DHT22;63208;52.178;21.016;2023-06-19T16:37:25;26.80;73.10
17033;DHT22;63208;52.178;21.016;2023-06-19T16:39:52;27.10;72.70
17033;DHT22;63208;52.178;21.016;2023-06-19T16:50:07;26.90;70.50
17033;DHT22;63208;52.178;21.016;2023-06-19T16:52:34;26.70;70.50
17033;DHT22;63208;52.178;21.016;2023-06-19T16:55:01;27.10;71.70
17033;DHT22;63208;52.178;21.016;2023-06-19T16:57:38;26.90;69.10
17033;DHT22;63208;52.178;21.016;2023-06-19T17:00:06;26.90;69.40
17033;DHT22;63208;52.178;21.016;2023-06-19T17:02:35;26.90;74.80
17033;DHT22;63208;52.178;21.016;2023-06-19T17:05:02;27.10;74.70
17033;DHT22;63208;52.178;21.016;2023-06-19T17:07:35;26.70;68.80
17033;DHT22;63208;52.178;21.016;2023-06-19T17:14:58;26.20;74.90
17033;DHT22;63208;52.178;21.016;2023-06-19T17:17:25;26.70;72.80